createdAt,value
2023-09-17T00:00:21.253Z,6.57
2023-09-17T00:02:48.159Z,6.28
2023-09-17T00:05:15.057Z,5.40
2023-09-17T00:07:43.105Z,5.38
2023-09-17T00:10:10.407Z,5.03
2023-09-17T00:12:37.269Z,5.00
2023-09-17T00:15:04.476Z,5.15
2023-09-17T00:17:31.453Z,5.00
2023-09-17T00:19:58.378Z,5.45
2023-09-17T00:22:25.980Z,5.28
2023-09-17T00:24:52.907Z,5.70
2023-09-17T00:27:19.533Z,12.75
2023-09-17T00:29:46.213Z,6.93
2023-09-17T00:32:12.976Z,6.05
2023-09-17T00:34:39.752Z,5.30
2023-09-17T00:37:08.676Z,5.40
2023-09-17T00:39:35.389Z,5.80
2023-09-17T00:42:02.109Z,5.30
2023-09-17T00:44:28.813Z,7.72
2023-09-17T00:46:57.280Z,22.50
2023-09-17T00:49:24.510Z,9.82
2023-09-17T00:51:51.398Z,7.38
2023-09-17T00:54:18.424Z,5.97
2023-09-17T00:56:45.260Z,5.78
2023-09-17T00:59:11.953Z,6.55
2023-09-17T01:01:38.755Z,5.95
2023-09-17T01:04:08.982Z,5.80
2023-09-17T01:06:39.723Z,5.90
2023-09-17T01:09:08.701Z,5.30
2023-09-17T01:11:36.862Z,7.20
2023-09-17T01:14:13.313Z,9.85
2023-09-17T01:16:47.418Z,6.85
2023-09-17T01:19:24.613Z,5.80
2023-09-17T01:22:10.797Z,6.15
2023-09-17T01:24:55.535Z,7.38
2023-09-17T01:27:24.038Z,6.30
2023-09-17T01:29:50.776Z,6.25
2023-09-17T01:32:18.316Z,6.20
2023-09-17T01:34:50.937Z,5.88
2023-09-17T01:37:28.699Z,6.45
2023-09-17T01:40:01.810Z,5.57
2023-09-17T01:42:29.429Z,5.57
2023-09-17T01:44:58.220Z,8.23
2023-09-17T01:47:28.078Z,7.20
2023-09-17T01:49:59.642Z,7.03
2023-09-17T01:52:28.071Z,7.25
2023-09-17T01:54:54.946Z,7.05
2023-09-17T01:57:21.618Z,7.57
2023-09-17T01:59:48.386Z,7.03
2023-09-17T02:02:15.129Z,6.75
2023-09-17T02:04:43.259Z,6.80
2023-09-17T02:07:10.322Z,6.65
2023-09-17T02:09:37.061Z,6.37
2023-09-17T02:12:04.048Z,6.22
2023-09-17T02:14:30.789Z,6.53
2023-09-17T02:16:57.573Z,6.10
2023-09-17T02:19:26.426Z,6.28
2023-09-17T02:21:53.948Z,6.17
2023-09-17T02:24:21.241Z,6.05
2023-09-17T02:26:48.275Z,6.43
2023-09-17T02:29:15.067Z,6.20
2023-09-17T02:31:41.811Z,6.28
2023-09-17T02:34:08.809Z,6.13
2023-09-17T02:36:37.620Z,6.53
2023-09-17T02:39:04.900Z,6.47
2023-09-17T02:41:31.597Z,5.75
2023-09-17T02:44:00.240Z,6.55
2023-09-17T02:46:27.118Z,6.10
2023-09-17T02:48:55.583Z,6.43
2023-09-17T02:51:22.500Z,6.10
2023-09-17T02:53:49.848Z,6.28
2023-09-17T02:56:16.810Z,6.80
2023-09-17T02:58:43.521Z,6.50
2023-09-17T03:01:19.959Z,7.00
2023-09-17T03:03:47.518Z,6.40
2023-09-17T03:06:14.946Z,6.63
2023-09-17T03:08:42.771Z,7.03
2023-09-17T03:11:14.466Z,6.40
2023-09-17T03:13:48.647Z,7.13
2023-09-17T03:16:16.948Z,7.10
2023-09-17T03:18:44.175Z,6.63
2023-09-17T03:21:11.775Z,6.88
2023-09-17T03:23:39.341Z,6.73
2023-09-17T03:26:06.519Z,7.28
2023-09-17T03:28:34.051Z,6.95
2023-09-17T03:31:02.136Z,6.47
2023-09-17T03:33:29.307Z,6.78
2023-09-17T03:35:56.428Z,6.70
2023-09-17T03:38:23.081Z,6.90
2023-09-17T03:40:49.929Z,6.57
2023-09-17T03:43:16.726Z,6.80
2023-09-17T03:45:43.578Z,6.80
2023-09-17T03:48:10.295Z,6.77
2023-09-17T03:50:40.630Z,6.65
2023-09-17T03:53:08.033Z,6.82
2023-09-17T03:55:35.717Z,6.88
2023-09-17T03:58:02.904Z,6.65
2023-09-17T04:00:29.832Z,6.90
2023-09-17T04:02:56.650Z,6.47
2023-09-17T04:05:23.647Z,6.80
2023-09-17T04:07:50.381Z,7.20
2023-09-17T04:10:18.570Z,6.85
2023-09-17T04:12:46.055Z,6.90
2023-09-17T04:15:17.879Z,6.70
2023-09-17T04:17:45.479Z,6.47
2023-09-17T04:20:15.391Z,7.05
2023-09-17T04:22:44.120Z,6.88
2023-09-17T04:25:11.830Z,7.17
2023-09-17T04:27:41.464Z,6.75
2023-09-17T04:30:09.185Z,7.22
2023-09-17T04:32:41.031Z,7.38
2023-09-17T04:35:09.367Z,7.15
2023-09-17T04:37:37.189Z,6.73
2023-09-17T04:40:14.246Z,6.75
2023-09-17T04:42:45.182Z,6.68
2023-09-17T04:45:12.771Z,6.88
2023-09-17T04:47:41.228Z,7.60
2023-09-17T04:50:10.976Z,7.20
2023-09-17T04:52:38.233Z,7.20
2023-09-17T04:55:06.169Z,7.50
2023-09-17T04:57:32.873Z,33.03
2023-09-17T05:00:08.137Z,8.93
2023-09-17T05:02:34.984Z,6.87
2023-09-17T05:05:01.795Z,6.78
2023-09-17T05:07:28.995Z,6.55
2023-09-17T05:09:55.707Z,7.10
2023-09-17T05:12:22.402Z,6.65
2023-09-17T05:14:49.086Z,6.40
2023-09-17T05:17:16.744Z,7.13
2023-09-17T05:19:43.453Z,6.78
2023-09-17T05:22:10.139Z,7.10
2023-09-17T05:24:36.839Z,6.90
2023-09-17T05:27:04.416Z,6.77
2023-09-17T05:29:31.143Z,7.18
2023-09-17T05:31:57.877Z,6.63
2023-09-17T05:34:24.882Z,5.85
2023-09-17T05:36:51.781Z,6.30
2023-09-17T05:39:18.472Z,6.60
2023-09-17T05:41:45.112Z,6.22
2023-09-17T05:44:11.773Z,6.72
2023-09-17T05:46:38.512Z,7.13
2023-09-17T05:49:05.268Z,7.38
2023-09-17T05:51:32.067Z,6.83
2023-09-17T05:53:58.726Z,7.25
2023-09-17T05:56:25.468Z,7.28
2023-09-17T05:58:52.169Z,7.03
2023-09-17T06:01:18.944Z,7.45
2023-09-17T06:03:45.805Z,6.90
2023-09-17T06:06:12.633Z,6.63
2023-09-17T06:08:40.148Z,6.60
2023-09-17T06:11:07.106Z,6.55
2023-09-17T06:13:34.531Z,6.70
2023-09-17T06:16:02.259Z,7.03
2023-09-17T06:18:33.356Z,6.35
2023-09-17T06:21:00.560Z,6.80
2023-09-17T06:23:28.459Z,6.40
2023-09-17T06:25:55.276Z,6.65
2023-09-17T06:28:22.072Z,6.30
2023-09-17T06:30:49.755Z,6.47
2023-09-17T06:33:16.700Z,6.35
2023-09-17T06:35:43.380Z,6.40
2023-09-17T06:38:10.031Z,6.50
2023-09-17T06:40:36.853Z,6.50
2023-09-17T06:43:03.630Z,6.55
2023-09-17T06:45:31.317Z,6.40
2023-09-17T06:47:58.275Z,6.38
2023-09-17T06:50:25.057Z,6.28
2023-09-17T06:52:51.725Z,6.03
2023-09-17T06:55:18.558Z,6.20
2023-09-17T06:57:45.981Z,6.20
2023-09-17T07:00:13.119Z,6.43
2023-09-17T07:02:39.874Z,6.35
2023-09-17T07:05:11.592Z,5.93
2023-09-17T07:07:38.678Z,6.40
2023-09-17T07:10:06.129Z,6.07
2023-09-17T07:12:38.908Z,5.63
2023-09-17T07:15:07.239Z,5.70
2023-09-17T07:17:34.533Z,5.33
2023-09-17T07:20:02.064Z,5.57
2023-09-17T07:22:29.771Z,5.22
2023-09-17T07:24:59.777Z,5.20
2023-09-17T07:27:30.792Z,5.35
2023-09-17T07:29:58.336Z,4.80
2023-09-17T07:32:28.947Z,5.05
2023-09-17T07:34:56.845Z,4.80
2023-09-17T07:37:33.487Z,5.10
2023-09-17T07:40:07.966Z,5.03
2023-09-17T07:42:34.610Z,4.90
2023-09-17T07:45:01.374Z,4.93
2023-09-17T07:47:28.538Z,4.80
2023-09-17T07:49:55.420Z,4.82
2023-09-17T07:52:22.265Z,4.70
2023-09-17T07:54:49.021Z,4.30
2023-09-17T07:57:15.733Z,4.28
2023-09-17T07:59:42.370Z,4.10
2023-09-17T08:02:09.366Z,3.47
2023-09-17T08:04:36.393Z,3.17
2023-09-17T08:07:03.578Z,3.47
2023-09-17T08:09:31.301Z,3.85
2023-09-17T08:11:58.022Z,3.20
2023-09-17T08:14:26.899Z,3.80
2023-09-17T08:16:54.593Z,3.95
2023-09-17T08:19:21.436Z,3.73
2023-09-17T08:21:48.199Z,3.92
2023-09-17T08:24:16.459Z,3.88
2023-09-17T08:26:43.134Z,3.92
2023-09-17T08:29:11.241Z,4.05
2023-09-17T08:31:38.048Z,4.00
2023-09-17T08:34:04.925Z,3.40
2023-09-17T08:36:32.368Z,3.75
2023-09-17T08:38:59.472Z,3.60
2023-09-17T08:41:26.219Z,3.70
2023-09-17T08:43:56.633Z,3.60
2023-09-17T08:46:27.021Z,3.45
2023-09-17T08:48:54.470Z,3.33
2023-09-17T08:51:25.672Z,3.20
2023-09-17T08:54:04.816Z,3.13
2023-09-17T08:56:35.304Z,2.83
2023-09-17T08:59:07.195Z,2.90
2023-09-17T09:01:37.484Z,2.85
2023-09-17T09:04:06.371Z,2.90
2023-09-17T09:06:34.880Z,2.83
2023-09-17T09:09:02.543Z,2.80
2023-09-17T09:11:29.820Z,3.10
2023-09-17T09:13:57.422Z,2.92
2023-09-17T09:16:24.454Z,2.88
2023-09-17T09:18:51.342Z,3.10
2023-09-17T09:21:18.053Z,3.20
2023-09-17T09:23:44.701Z,3.10
2023-09-17T09:26:11.510Z,2.88
2023-09-17T09:28:38.302Z,2.80
2023-09-17T09:31:05.107Z,2.78
2023-09-17T09:33:33.156Z,2.93
2023-09-17T09:36:01.391Z,3.13
2023-09-17T09:38:29.409Z,2.83
2023-09-17T09:40:56.185Z,2.80
2023-09-17T09:43:32.484Z,2.60
2023-09-17T09:46:06.110Z,2.70
2023-09-17T09:48:37.494Z,2.50
2023-09-17T09:51:04.433Z,2.50
2023-09-17T09:53:31.251Z,2.72
2023-09-17T09:55:58.332Z,2.65
2023-09-17T09:58:25.960Z,2.43
2023-09-17T10:00:54.843Z,2.60
2023-09-17T10:03:22.036Z,2.30
2023-09-17T10:05:48.923Z,2.60
2023-09-17T10:08:18.334Z,2.30
2023-09-17T10:10:45.410Z,2.37
2023-09-17T10:13:13.206Z,2.67
2023-09-17T10:15:42.692Z,2.22
2023-09-17T10:18:13.562Z,2.30
2023-09-17T10:20:44.657Z,2.55
2023-09-17T10:23:16.522Z,2.70
2023-09-17T10:25:45.270Z,2.25
2023-09-17T10:28:12.759Z,2.28
2023-09-17T10:30:41.965Z,2.40
2023-09-17T10:33:10.637Z,2.30
2023-09-17T10:35:39.766Z,2.63
2023-09-17T10:38:08.989Z,2.60
2023-09-17T10:40:36.611Z,2.70
2023-09-17T10:43:05.841Z,2.60
2023-09-17T10:45:36.369Z,2.45
2023-09-17T10:48:03.914Z,2.50
2023-09-17T10:50:33.153Z,2.25
2023-09-17T10:52:59.991Z,2.50
2023-09-17T10:55:29.835Z,2.60
2023-09-17T10:58:05.929Z,2.40
2023-09-17T11:00:36.267Z,2.40
2023-09-17T11:03:05.956Z,2.50
2023-09-17T11:05:33.914Z,2.60
2023-09-17T11:08:04.197Z,2.80
2023-09-17T11:10:32.890Z,2.80
2023-09-17T11:13:00.408Z,2.50
2023-09-17T11:15:27.247Z,2.67
2023-09-17T11:17:59.546Z,2.60
2023-09-17T11:20:26.528Z,2.90
2023-09-17T11:22:53.661Z,2.80
2023-09-17T11:25:49.486Z,2.70
2023-09-17T11:28:16.608Z,3.05
2023-09-17T11:30:58.111Z,2.78
2023-09-17T11:33:25.332Z,3.05
2023-09-17T11:35:53.893Z,2.88
2023-09-17T11:38:27.750Z,2.83
2023-09-17T11:41:03.705Z,3.10
2023-09-17T11:43:30.700Z,3.17
2023-09-17T11:45:57.888Z,3.13
2023-09-17T11:48:24.827Z,3.20
2023-09-17T11:50:51.500Z,3.00
2023-09-17T11:53:20.502Z,3.05
2023-09-17T11:55:51.117Z,3.00
2023-09-17T11:58:20.882Z,3.00
2023-09-17T12:00:47.575Z,2.85
2023-09-17T12:03:15.156Z,3.10
2023-09-17T12:05:42.058Z,3.20
2023-09-17T12:08:08.929Z,2.85
2023-09-17T12:10:38.553Z,2.80
2023-09-17T12:13:05.383Z,2.83
2023-09-17T12:15:32.996Z,2.87
2023-09-17T12:18:00.673Z,2.65
2023-09-17T12:20:50.327Z,2.70
2023-09-17T12:23:24.071Z,2.58
2023-09-17T12:25:50.751Z,2.50
2023-09-17T12:28:27.386Z,2.67
2023-09-17T12:30:54.791Z,2.70
2023-09-17T12:33:21.890Z,2.50
2023-09-17T12:35:51.458Z,2.67
2023-09-17T12:38:18.481Z,2.80
2023-09-17T12:40:45.230Z,2.60
2023-09-17T12:43:11.901Z,2.80
2023-09-17T12:45:39.255Z,2.70
2023-09-17T12:48:06.529Z,2.80
2023-09-17T12:50:33.817Z,2.60
2023-09-17T12:53:00.646Z,2.87
2023-09-17T12:55:28.046Z,2.65
2023-09-17T12:57:54.817Z,2.70
2023-09-17T13:00:23.062Z,2.60
2023-09-17T13:02:55.244Z,2.70
2023-09-17T13:05:22.902Z,2.30
2023-09-17T13:07:50.120Z,2.00
2023-09-17T13:10:21.101Z,2.10
2023-09-17T13:12:49.242Z,2.10
2023-09-17T13:15:16.041Z,1.90
2023-09-17T13:17:42.759Z,2.13
2023-09-17T13:20:09.863Z,1.90
2023-09-17T13:22:37.092Z,1.83
2023-09-17T13:25:04.319Z,1.70
2023-09-17T13:27:31.137Z,1.80
2023-09-17T13:29:58.110Z,1.90
2023-09-17T13:32:26.243Z,2.08
2023-09-17T13:34:53.334Z,2.10
2023-09-17T13:37:20.360Z,2.00
2023-09-17T13:39:52.899Z,2.03
2023-09-17T13:42:20.020Z,2.40
2023-09-17T13:44:46.767Z,1.90
2023-09-17T13:47:13.708Z,1.98
2023-09-17T13:49:41.857Z,1.95
2023-09-17T13:52:09.708Z,1.92
2023-09-17T13:54:38.807Z,2.07
2023-09-17T13:57:06.098Z,1.90
2023-09-17T13:59:32.775Z,1.85
2023-09-17T14:01:59.571Z,2.08
2023-09-17T14:04:26.268Z,2.00
2023-09-17T14:06:55.967Z,1.90
2023-09-17T14:09:23.951Z,2.10
2023-09-17T14:11:50.681Z,2.30
2023-09-17T14:14:17.443Z,2.28
2023-09-17T14:16:45.356Z,2.50
2023-09-17T14:19:17.906Z,2.37
2023-09-17T14:21:45.558Z,2.28
2023-09-17T14:24:12.363Z,2.40
2023-09-17T14:26:39.041Z,2.38
2023-09-17T14:29:05.818Z,2.20
2023-09-17T14:31:32.595Z,2.50
2023-09-17T14:33:59.315Z,2.20
2023-09-17T14:36:25.976Z,2.30
2023-09-17T14:38:53.012Z,2.20
2023-09-17T14:41:20.962Z,2.17
2023-09-17T14:43:47.695Z,2.30
2023-09-17T14:46:14.449Z,2.30
2023-09-17T14:48:41.169Z,2.28
2023-09-17T14:51:07.957Z,2.40
2023-09-17T14:53:34.618Z,2.17
2023-09-17T14:56:01.392Z,2.40
2023-09-17T14:58:28.139Z,2.30
2023-09-17T15:00:54.946Z,2.40
2023-09-17T15:03:22.551Z,2.03
2023-09-17T15:05:49.515Z,2.30
2023-09-17T15:08:16.469Z,2.10
2023-09-17T15:10:44.731Z,2.40
2023-09-17T15:13:11.499Z,2.45
2023-09-17T15:15:39.457Z,2.20
2023-09-17T15:18:07.025Z,2.22
2023-09-17T15:20:37.103Z,2.20
2023-09-17T15:23:03.973Z,2.15
2023-09-17T15:25:30.758Z,2.20
2023-09-17T15:27:59.667Z,2.13
2023-09-17T15:30:26.686Z,2.10
2023-09-17T15:32:53.720Z,2.20
2023-09-17T15:35:23.362Z,2.20
2023-09-17T15:37:50.512Z,2.17
2023-09-17T15:40:17.234Z,2.30
2023-09-17T15:42:46.355Z,2.10
2023-09-17T15:45:13.369Z,2.70
2023-09-17T15:47:41.546Z,1.98
2023-09-17T15:50:09.118Z,2.03
2023-09-17T15:52:35.856Z,2.35
2023-09-17T15:55:02.586Z,2.10
2023-09-17T15:57:29.237Z,2.20
2023-09-17T15:59:55.898Z,2.05
2023-09-17T16:02:24.286Z,1.98
2023-09-17T16:04:51.404Z,2.10
2023-09-17T16:07:18.226Z,2.00
2023-09-17T16:09:45.018Z,2.07
2023-09-17T16:12:11.739Z,2.00
2023-09-17T16:14:39.008Z,2.17
2023-09-17T16:17:05.735Z,2.20
2023-09-17T16:19:32.662Z,2.10
2023-09-17T16:21:59.439Z,2.10
2023-09-17T16:24:26.396Z,2.08
2023-09-17T16:26:53.081Z,2.40
2023-09-17T16:29:19.961Z,2.40
2023-09-17T16:31:46.748Z,2.15
2023-09-17T16:34:13.484Z,2.10
2023-09-17T16:36:41.053Z,2.00
2023-09-17T16:39:07.870Z,2.10
2023-09-17T16:41:34.946Z,2.67
2023-09-17T16:44:01.677Z,4.35
2023-09-17T16:46:28.663Z,5.67
2023-09-17T16:48:55.486Z,5.50
2023-09-17T16:51:22.309Z,3.53
2023-09-17T16:53:49.196Z,2.80
2023-09-17T16:56:16.145Z,2.63
2023-09-17T16:58:42.864Z,2.57
2023-09-17T17:01:09.706Z,2.13
2023-09-17T17:03:36.655Z,2.10
2023-09-17T17:06:03.672Z,2.30
2023-09-17T17:08:30.552Z,2.40
2023-09-17T17:10:58.518Z,2.23
2023-09-17T17:13:25.379Z,3.55
2023-09-17T17:15:52.345Z,4.53
2023-09-17T17:18:19.237Z,3.28
2023-09-17T17:20:46.067Z,2.63
2023-09-17T17:23:14.974Z,2.47
2023-09-17T17:25:45.125Z,2.40
2023-09-17T17:28:11.919Z,2.30
2023-09-17T17:30:38.614Z,2.95
2023-09-17T17:33:05.439Z,3.05
2023-09-17T17:35:32.325Z,3.40
2023-09-17T17:37:59.077Z,4.68
2023-09-17T17:40:27.803Z,4.50
2023-09-17T17:42:55.540Z,3.90
2023-09-17T17:45:22.708Z,3.00
2023-09-17T17:47:50.406Z,2.53
2023-09-17T17:50:17.232Z,2.80
2023-09-17T17:52:44.153Z,4.22
2023-09-17T17:55:11.197Z,3.90
2023-09-17T17:57:38.040Z,13.95
2023-09-17T18:00:10.640Z,6.67
2023-09-17T18:02:40.261Z,9.25
2023-09-17T18:05:09.585Z,10.18
2023-09-17T18:07:37.538Z,3.33
2023-09-17T18:10:07.864Z,3.60
2023-09-17T18:12:39.853Z,3.40
2023-09-17T18:15:09.504Z,3.35
2023-09-17T18:17:37.603Z,3.10
2023-09-17T18:20:04.763Z,2.95
2023-09-17T18:22:31.766Z,2.70
2023-09-17T18:24:59.942Z,2.90
2023-09-17T18:27:26.813Z,2.92
2023-09-17T18:29:53.591Z,2.47
2023-09-17T18:32:20.306Z,2.60
2023-09-17T18:34:47.290Z,2.28
2023-09-17T18:37:14.012Z,2.40
2023-09-17T18:39:40.697Z,2.30
2023-09-17T18:42:07.575Z,2.20
2023-09-17T18:44:36.269Z,2.30
2023-09-17T18:47:04.027Z,2.33
2023-09-17T18:49:30.840Z,2.23
2023-09-17T18:51:59.218Z,2.42
2023-09-17T18:54:26.067Z,2.53
2023-09-17T18:56:52.760Z,2.60
2023-09-17T18:59:19.501Z,2.63
2023-09-17T19:01:46.434Z,2.87
2023-09-17T19:04:16.336Z,2.42
2023-09-17T19:06:43.066Z,2.67
2023-09-17T19:09:10.171Z,2.83
2023-09-17T19:11:36.913Z,2.70
2023-09-17T19:14:04.068Z,2.73
2023-09-17T19:16:31.032Z,3.00
2023-09-17T19:18:58.189Z,2.75
2023-09-17T19:21:25.814Z,2.85
2023-09-17T19:23:54.746Z,2.80
2023-09-17T19:26:22.077Z,3.13
2023-09-17T19:28:48.900Z,3.00
2023-09-17T19:31:15.777Z,3.13
2023-09-17T19:33:42.597Z,3.10
2023-09-17T19:36:09.334Z,2.67
2023-09-17T19:38:36.967Z,3.30
2023-09-17T19:41:03.941Z,2.50
2023-09-17T19:43:30.757Z,3.10
2023-09-17T19:45:58.081Z,2.70
2023-09-17T19:48:25.854Z,3.30
2023-09-17T19:50:52.869Z,3.10
2023-09-17T19:53:20.489Z,3.38
2023-09-17T19:55:48.156Z,3.00
2023-09-17T19:58:15.263Z,3.00
2023-09-17T20:00:44.908Z,2.90
2023-09-17T20:03:11.757Z,3.10
2023-09-17T20:05:38.639Z,3.67
2023-09-17T20:08:08.805Z,3.40
2023-09-17T20:10:38.319Z,3.22
2023-09-17T20:13:06.108Z,3.55
2023-09-17T20:15:33.088Z,3.60
2023-09-17T20:18:00.100Z,3.42
2023-09-17T20:20:27.528Z,3.60
2023-09-17T20:22:54.892Z,3.30
2023-09-17T20:25:22.681Z,3.72
2023-09-17T20:27:57.400Z,3.60
2023-09-17T20:30:24.781Z,3.42
2023-09-17T20:32:51.550Z,3.90
2023-09-17T20:35:18.497Z,3.60
2023-09-17T20:37:45.465Z,3.83
2023-09-17T20:40:12.286Z,3.70
2023-09-17T20:42:39.337Z,3.60
2023-09-17T20:45:07.208Z,4.13
2023-09-17T20:47:34.430Z,3.72
2023-09-17T20:50:01.290Z,4.28
2023-09-17T20:52:29.091Z,4.30
2023-09-17T20:54:55.739Z,3.90
2023-09-17T20:57:24.149Z,3.90
2023-09-17T20:59:50.857Z,4.30
2023-09-17T21:02:17.635Z,3.90
2023-09-17T21:04:45.602Z,3.97
2023-09-17T21:07:12.460Z,3.90
2023-09-17T21:09:39.498Z,3.60
2023-09-17T21:12:06.587Z,3.83
2023-09-17T21:14:33.284Z,3.80
2023-09-17T21:17:00.322Z,4.13
2023-09-17T21:19:27.026Z,3.58
2023-09-17T21:21:53.782Z,3.85
2023-09-17T21:24:20.529Z,3.63
2023-09-17T21:26:47.330Z,3.78
2023-09-17T21:29:14.969Z,3.90
2023-09-17T21:31:42.305Z,3.97
2023-09-17T21:34:09.085Z,3.50
2023-09-17T21:36:35.903Z,3.70
2023-09-17T21:39:03.756Z,3.80
2023-09-17T21:41:31.841Z,3.73
2023-09-17T21:44:02.545Z,3.67
2023-09-17T21:46:32.397Z,3.88
2023-09-17T21:48:59.181Z,3.60
2023-09-17T21:51:25.951Z,3.60
2023-09-17T21:53:53.086Z,3.70
2023-09-17T21:56:20.311Z,3.80
2023-09-17T21:58:47.126Z,3.60
2023-09-17T22:01:13.895Z,4.00
2023-09-17T22:03:42.214Z,3.95
2023-09-17T22:06:09.351Z,3.97
2023-09-17T22:08:36.223Z,4.00
2023-09-17T22:11:06.718Z,4.13
2023-09-17T22:13:34.826Z,4.15
2023-09-17T22:16:01.820Z,3.75
2023-09-17T22:18:28.680Z,3.93
2023-09-17T22:21:05.375Z,4.20
2023-09-17T22:23:32.121Z,4.50
2023-09-17T22:26:00.176Z,3.95
2023-09-17T22:28:27.497Z,4.20
2023-09-17T22:30:54.268Z,4.30
2023-09-17T22:33:21.002Z,4.47
2023-09-17T22:35:47.908Z,4.35
2023-09-17T22:38:14.712Z,4.18
2023-09-17T22:40:42.106Z,4.35
2023-09-17T22:43:09.332Z,4.37
2023-09-17T22:45:39.659Z,4.53
2023-09-17T22:48:06.912Z,4.30
2023-09-17T22:50:33.714Z,4.20
2023-09-17T22:53:00.602Z,4.30
2023-09-17T22:55:27.517Z,4.30
2023-09-17T22:57:54.220Z,4.07
2023-09-17T23:00:22.344Z,4.10
2023-09-17T23:02:49.664Z,4.25
2023-09-17T23:05:18.255Z,4.00
2023-09-17T23:07:45.127Z,4.83
2023-09-17T23:10:11.991Z,4.30
2023-09-17T23:12:38.700Z,4.20
2023-09-17T23:15:05.699Z,4.25
2023-09-17T23:17:32.497Z,4.05
2023-09-17T23:19:59.308Z,3.93
2023-09-17T23:22:26.221Z,3.80
2023-09-17T23:24:54.060Z,4.00
2023-09-17T23:27:20.750Z,3.92
2023-09-17T23:29:49.545Z,4.40
2023-09-17T23:32:16.444Z,4.17
2023-09-17T23:34:43.310Z,4.55
2023-09-17T23:37:12.863Z,4.07
2023-09-17T23:39:44.261Z,4.20
2023-09-17T23:42:12.616Z,4.35
2023-09-17T23:44:39.512Z,4.10
2023-09-17T23:47:06.477Z,4.32
2023-09-17T23:49:33.249Z,3.70
2023-09-17T23:51:59.907Z,4.22
2023-09-17T23:54:26.611Z,4.43
2023-09-17T23:56:53.333Z,4.57
2023-09-17T23:59:20.081Z,4.13
